Time;durP1;ratioP1;P1;durP2;ratioP2;P2;SDS_P1;SDS_P2;PMS_P1;PMS_P2;Temp;Humidity;BMP_temperature;BMP_pressure;BME280_temperature;BME280_humidity;BME280_pressure;Samples;Min_cycle;Max_cycle;Signal;HPM_P1;HPM_P2
2022/01/05 00:01:38;;;;;;;1.60;1.50;;;;;;;5.14;100.00;96657.19;5108519;28;20219;-65
2022/01/05 00:04:04;;;;;;;1.10;1.07;;;;;;;5.14;100.00;96647.53;5111399;28;20219;-65
2022/01/05 00:06:31;;;;;;;1.70;1.20;;;;;;;5.16;100.00;96629.94;5111613;28;20223;-65
2022/01/05 00:08:57;;;;;;;1.40;1.30;;;;;;;5.21;100.00;96634.84;5107157;28;20219;-65
2022/01/05 00:11:24;;;;;;;1.73;1.53;;;;;;;5.25;100.00;96631.06;5100433;28;20244;-65
2022/01/05 00:13:50;;;;;;;1.17;1.07;;;;;;;5.27;100.00;96637.88;5099238;28;20248;-65
2022/01/05 00:16:17;;;;;;;4.10;1.40;;;;;;;5.29;100.00;96633.34;5099321;28;20213;-65
2022/01/05 00:18:44;;;;;;;1.30;1.20;;;;;;;5.32;100.00;96638.34;5098908;28;20223;-65
2022/01/05 00:21:11;;;;;;;1.47;1.27;;;;;;;5.35;100.00;96632.06;5102059;28;20488;-65
2022/01/05 00:23:37;;;;;;;1.40;1.20;;;;;;;5.38;100.00;96624.00;5099255;28;20211;-65
2022/01/05 00:26:04;;;;;;;1.57;1.30;;;;;;;5.38;100.00;96631.84;5098851;28;20221;-65
2022/01/05 00:28:31;;;;;;;1.20;1.03;;;;;;;5.40;100.00;96622.94;5099047;28;20269;-65
2022/01/05 00:30:58;;;;;;;1.27;1.17;;;;;;;5.39;100.00;96623.91;5101333;28;20245;-65
2022/01/05 00:33:24;;;;;;;1.67;1.10;;;;;;;5.37;100.00;96623.16;5098679;28;20250;-66
2022/01/05 00:35:52;;;;;;;1.20;1.10;;;;;;;5.35;100.00;96622.44;5098928;28;20213;-66
2022/01/05 00:38:19;;;;;;;1.07;0.97;;;;;;;5.36;100.00;96597.91;5096920;28;20215;-65
2022/01/05 00:40:45;;;;;;;0.90;0.90;;;;;;;5.30;100.00;96597.50;5100935;28;20213;-65
2022/01/05 00:43:11;;;;;;;0.70;0.70;;;;;;;5.30;100.00;96597.50;5098842;28;20214;-65
2022/01/05 00:45:38;;;;;;;1.00;0.80;;;;;;;5.27;100.00;96601.22;5098496;28;20223;-65
2022/01/05 00:48:05;;;;;;;1.03;0.90;;;;;;;5.26;100.00;96598.69;5098790;28;20212;-65
2022/01/05 00:50:31;;;;;;;1.43;0.80;;;;;;;5.25;100.00;96589.97;5110757;28;20222;-65
2022/01/05 00:53:01;;;;;;;0.70;0.70;;;;;;;5.15;100.00;96590.75;5098007;28;20244;-65
2022/01/05 00:55:27;;;;;;;0.50;0.50;;;;;;;5.16;100.00;96584.56;5097935;28;20221;-65
2022/01/05 00:57:54;;;;;;;0.60;0.60;;;;;;;5.23;100.00;96586.66;5097997;28;20228;-65
2022/01/05 01:00:21;;;;;;;0.53;0.53;;;;;;;5.19;100.00;96590.44;5100384;28;20217;-65
2022/01/05 01:02:47;;;;;;;0.60;0.60;;;;;;;5.19;100.00;96585.19;5098031;28;20237;-65
2022/01/05 01:05:14;;;;;;;0.67;0.67;;;;;;;5.11;100.00;96579.69;5096098;28;20217;-66
2022/01/05 01:07:41;;;;;;;0.60;0.60;;;;;;;5.13;100.00;96579.56;5097750;28;20217;-66
2022/01/05 01:10:10;;;;;;;1.23;0.60;;;;;;;5.10;100.00;96580.63;5107837;28;20209;-66
2022/01/05 01:12:36;;;;;;;0.60;0.60;;;;;;;5.12;100.00;96589.19;5109069;28;20237;-66
2022/01/05 01:15:04;;;;;;;0.50;0.50;;;;;;;5.14;100.00;96604.81;5110425;28;20212;-67
2022/01/05 01:17:30;;;;;;;0.47;0.47;;;;;;;5.21;100.00;96604.28;5110411;28;20604;-66
2022/01/05 01:19:57;;;;;;;0.70;0.70;;;;;;;5.19;100.00;96606.13;5106453;28;20675;-66
2022/01/05 01:22:24;;;;;;;0.30;0.30;;;;;;;5.24;100.00;96605.81;5108734;28;20241;-66
2022/01/05 01:24:51;;;;;;;0.50;0.50;;;;;;;5.22;100.00;96605.94;5109944;28;20680;-66
2022/01/05 01:27:18;;;;;;;0.73;0.50;;;;;;;5.26;100.00;96615.22;5109821;28;20708;-66
2022/01/05 01:29:45;;;;;;;0.63;0.50;;;;;;;5.24;100.00;96624.97;5104946;28;20216;-66
2022/01/05 01:32:11;;;;;;;0.60;0.60;;;;;;;5.28;100.00;96626.44;5108189;28;20217;-66
2022/01/05 01:34:38;;;;;;;0.63;0.50;;;;;;;5.32;100.00;96617.41;5110047;28;20219;-66
2022/01/05 01:37:04;;;;;;;0.50;0.50;;;;;;;5.31;100.00;96615.72;5109849;28;20216;-66
2022/01/05 01:39:31;;;;;;;0.50;0.50;;;;;;;5.30;100.00;96632.41;5107258;28;20212;-67
2022/01/05 01:41:57;;;;;;;0.57;0.50;;;;;;;5.23;100.00;96623.31;5107092;28;20225;-67
2022/01/05 01:44:25;;;;;;;0.50;0.50;;;;;;;5.21;100.00;96625.22;5109563;28;20706;-67
2022/01/05 01:46:53;;;;;;;0.40;0.40;;;;;;;5.29;100.00;96622.03;5109749;28;20234;-66
2022/01/05 01:49:20;;;;;;;1.37;0.50;;;;;;;5.31;100.00;96623.59;5107361;28;20216;-66
2022/01/05 01:51:46;;;;;;;0.50;0.50;;;;;;;5.29;100.00;96628.09;5106876;28;20208;-67
2022/01/05 01:54:14;;;;;;;0.50;0.50;;;;;;;5.34;100.00;96619.91;5109310;28;20242;-67
2022/01/05 01:56:40;;;;;;;0.50;0.50;;;;;;;5.35;100.00;96626.81;5107964;28;20689;-67
2022/01/05 01:59:08;;;;;;;0.37;0.37;;;;;;;5.40;100.00;96630.81;5107413;28;20215;-67
2022/01/05 02:01:36;;;;;;;0.40;0.40;;;;;;;5.43;100.00;96634.97;5106211;28;20681;-67
2022/01/05 02:04:02;;;;;;;0.83;0.40;;;;;;;5.45;100.00;96643.56;5109472;28;20569;-67
2022/01/05 02:06:29;;;;;;;0.40;0.40;;;;;;;5.46;100.00;96629.50;5102843;28;20213;-67
2022/01/05 02:08:55;;;;;;;0.40;0.40;;;;;;;5.37;100.00;96638.03;5098922;28;20207;-67
2022/01/05 02:11:22;;;;;;;0.80;0.67;;;;;;;5.39;100.00;96644.84;5105873;28;20213;-67
2022/01/05 02:13:48;;;;;;;1.23;0.53;;;;;;;5.42;100.00;96655.09;5108833;28;20243;-67
2022/01/05 02:16:19;;;;;;;0.50;0.50;;;;;;;5.45;100.00;96665.34;5108923;28;20213;-67
2022/01/05 02:18:59;;;;;;;0.50;0.50;;;;;;;5.43;100.00;96661.19;5107401;28;20627;-66
2022/01/05 02:21:27;;;;;;;0.50;0.50;;;;;;;5.42;100.00;96642.00;5105586;28;20212;-67
2022/01/05 02:23:54;;;;;;;0.50;0.50;;;;;;;5.47;100.00;96641.66;5109140;28;20666;-67
2022/01/05 02:26:20;;;;;;;0.50;0.50;;;;;;;5.46;100.00;96643.47;5109240;28;20209;-67
2022/01/05 02:28:47;;;;;;;0.47;0.47;;;;;;;5.46;100.00;96640.84;5105811;28;20218;-67
2022/01/05 02:31:13;;;;;;;0.30;0.30;;;;;;;5.46;100.00;96646.06;5107017;28;20721;-67
2022/01/05 02:33:41;;;;;;;0.60;0.50;;;;;;;5.54;100.00;96648.97;5108955;28;20250;-67
2022/01/05 02:36:08;;;;;;;0.50;0.50;;;;;;;5.55;100.00;96639.34;5108681;28;20208;-67
2022/01/05 02:38:36;;;;;;;0.40;0.40;;;;;;;5.49;100.00;96643.22;5105787;28;20495;-67
2022/01/05 02:41:07;;;;;;;0.50;0.50;;;;;;;5.49;100.00;96651.06;5106824;28;20216;-67
2022/01/05 02:43:34;;;;;;;0.50;0.43;;;;;;;5.52;100.00;96661.34;5108929;28;20207;-67
2022/01/05 02:46:00;;;;;;;0.50;0.50;;;;;;;5.53;100.00;96655.16;5108634;28;20704;-67
2022/01/05 02:48:27;;;;;;;0.43;0.40;;;;;;;5.57;100.00;96650.53;5103612;28;20217;-67
2022/01/05 02:50:56;;;;;;;0.57;0.57;;;;;;;5.54;100.00;96646.34;5107024;28;20220;-67
2022/01/05 02:53:23;;;;;;;1.17;0.60;;;;;;;5.47;100.00;96652.97;5108409;28;20640;-67
2022/01/05 02:55:50;;;;;;;0.40;0.40;;;;;;;5.48;100.00;96654.66;5108394;28;20598;-67
2022/01/05 02:58:17;;;;;;;0.40;0.40;;;;;;;5.49;100.00;96653.69;5105028;28;20208;-67
2022/01/05 03:00:44;;;;;;;0.57;0.57;;;;;;;5.45;100.00;96660.09;5106954;28;20221;-67
2022/01/05 03:03:10;;;;;;;0.70;0.70;;;;;;;5.51;100.00;96649.16;5108326;28;20674;-66
2022/01/05 03:05:36;;;;;;;0.53;0.50;;;;;;;5.53;100.00;96652.53;5108446;28;20216;-67
2022/01/05 03:08:05;;;;;;;0.60;0.60;;;;;;;5.48;100.00;96653.81;5105348;28;20674;-67
2022/01/05 03:10:31;;;;;;;1.03;0.63;;;;;;;5.55;100.00;96661.13;5096763;28;20226;-67
2022/01/05 03:12:59;;;;;;;0.77;0.77;;;;;;;5.55;100.00;96657.69;5096081;28;20233;-67
2022/01/05 03:15:25;;;;;;;0.60;0.60;;;;;;;5.49;100.00;96656.31;5094686;28;20213;-67
2022/01/05 03:17:52;;;;;;;0.80;0.80;;;;;;;5.49;100.00;96660.75;5096253;28;20217;-67
2022/01/05 03:20:19;;;;;;;0.70;0.57;;;;;;;5.49;100.00;96661.56;5104104;28;20229;-67
2022/01/05 03:22:46;;;;;;;0.60;0.60;;;;;;;5.49;100.00;96666.78;5095270;28;20296;-67
2022/01/05 03:25:16;;;;;;;0.50;0.50;;;;;;;5.51;100.00;96669.31;5095272;28;20224;-67
2022/01/05 03:27:43;;;;;;;0.67;0.67;;;;;;;5.54;100.00;96659.44;5097363;28;20219;-67
2022/01/05 03:30:12;;;;;;;0.63;0.60;;;;;;;5.54;100.00;96659.44;5095327;28;20642;-67
2022/01/05 03:32:50;;;;;;;3.03;1.60;;;;;;;5.50;100.00;96670.25;5097520;28;20217;-67
2022/01/05 03:35:16;;;;;;;2.90;1.20;;;;;;;5.52;100.00;96661.34;5099604;28;20303;-67
2022/01/05 03:37:43;;;;;;;1.57;0.80;;;;;;;5.48;100.00;96665.13;5101304;28;20218;-67
2022/01/05 03:40:11;;;;;;;0.90;0.60;;;;;;;5.59;100.00;96672.19;5097590;28;20220;-67
2022/01/05 03:42:37;;;;;;;0.63;0.63;;;;;;;5.51;100.00;96664.88;5099400;28;20213;-67
2022/01/05 03:45:04;;;;;;;0.60;0.60;;;;;;;5.42;100.00;96669.97;5099235;28;20677;-68
2022/01/05 03:47:32;;;;;;;0.80;0.80;;;;;;;5.43;100.00;96669.03;5101218;28;20216;-67
2022/01/05 03:49:59;;;;;;;0.50;0.50;;;;;;;5.42;100.00;96670.81;5100442;28;20221;-67
2022/01/05 03:52:25;;;;;;;0.67;0.67;;;;;;;5.43;100.00;96672.47;5099881;28;20215;-67
2022/01/05 03:54:52;;;;;;;0.50;0.50;;;;;;;5.38;100.00;96669.34;5099728;28;20245;-67
2022/01/05 03:57:18;;;;;;;0.70;0.70;;;;;;;5.45;100.00;96675.00;5100547;28;20219;-67
2022/01/05 03:59:45;;;;;;;0.50;0.50;;;;;;;5.48;100.00;96680.00;5101120;28;20215;-67
2022/01/05 04:02:12;;;;;;;0.50;0.50;;;;;;;5.48;100.00;96678.22;5099183;28;20706;-67
2022/01/05 04:04:39;;;;;;;1.00;0.57;;;;;;;5.50;100.00;96676.31;5099514;28;20208;-67
2022/01/05 04:07:06;;;;;;;0.60;0.60;;;;;;;5.52;100.00;96684.94;5098613;28;20217;-67
2022/01/05 04:09:32;;;;;;;0.90;0.70;;;;;;;5.52;100.00;96686.69;5101946;28;20205;-67
2022/01/05 04:11:59;;;;;;;0.67;0.60;;;;;;;5.49;100.00;96703.47;5111530;28;20211;-67
2022/01/05 04:14:25;;;;;;;0.50;0.50;;;;;;;5.47;100.00;96715.84;5111587;28;20236;-67
2022/01/05 04:16:52;;;;;;;4.50;0.60;;;;;;;5.52;100.00;96713.75;5109058;28;20224;-67
2022/01/05 04:19:18;;;;;;;0.80;0.50;;;;;;;5.51;100.00;96712.06;5109292;28;20213;-67
2022/01/05 04:21:46;;;;;;;0.57;0.57;;;;;;;5.48;100.00;96722.78;5111640;28;20220;-67
2022/01/05 04:24:12;;;;;;;0.40;0.40;;;;;;;5.47;100.00;96721.09;5111370;28;20212;-67
2022/01/05 04:26:39;;;;;;;0.40;0.40;;;;;;;5.45;100.00;96728.22;5109217;28;20210;-67
2022/01/05 04:29:05;;;;;;;1.87;0.50;;;;;;;5.37;100.00;96724.50;5108583;28;20209;-67
2022/01/05 04:31:32;;;;;;;1.53;0.60;;;;;;;5.37;100.00;96735.78;5109653;28;20689;-67
2022/01/05 04:33:58;;;;;;;0.40;0.40;;;;;;;5.36;100.00;96728.03;5111293;28;20237;-67
2022/01/05 04:36:25;;;;;;;0.50;0.50;;;;;;;5.36;100.00;96726.25;5102053;28;20713;-67
2022/01/05 04:38:53;;;;;;;0.50;0.50;;;;;;;5.31;100.00;96740.63;5098958;28;20216;-67
2022/01/05 04:41:20;;;;;;;0.40;0.40;;;;;;;5.33;100.00;96739.59;5098493;28;20217;-67
2022/01/05 04:43:46;;;;;;;1.23;0.50;;;;;;;5.28;100.00;96757.41;5097370;28;20699;-67
2022/01/05 04:46:13;;;;;;;0.97;0.60;;;;;;;5.27;100.00;96753.13;5099583;28;20217;-67
2022/01/05 04:48:41;;;;;;;1.17;0.77;;;;;;;5.16;100.00;96773.97;5099000;28;20217;-65
2022/01/05 04:51:08;;;;;;;0.50;0.50;;;;;;;5.13;100.00;96773.34;5098035;28;20256;-64
2022/01/05 04:53:35;;;;;;;0.50;0.50;;;;;;;5.05;100.00;96773.88;5098288;28;20236;-64
2022/01/05 04:56:03;;;;;;;0.60;0.60;;;;;;;4.98;100.00;96764.75;5099177;28;20213;-64
2022/01/05 04:58:30;;;;;;;0.50;0.50;;;;;;;4.97;100.00;96762.25;5097388;28;20223;-64
2022/01/05 05:00:57;;;;;;;1.13;0.50;;;;;;;4.92;100.00;96769.56;5097803;28;20256;-64
2022/01/05 05:03:24;;;;;;;1.00;0.70;;;;;;;4.93;100.00;96764.22;5098100;28;20216;-64
2022/01/05 05:05:50;;;;;;;0.60;0.60;;;;;;;4.94;100.00;96763.28;5098882;28;20261;-64
2022/01/05 05:08:16;;;;;;;0.80;0.70;;;;;;;4.99;100.00;96755.09;5099152;28;20215;-64
2022/01/05 05:10:43;;;;;;;0.63;0.63;;;;;;;4.99;100.00;96773.44;5109320;28;20207;-64
2022/01/05 05:13:11;;;;;;;1.20;1.10;;;;;;;5.00;100.00;96770.72;5110650;28;20218;-64
2022/01/05 05:15:38;;;;;;;0.90;0.90;;;;;;;4.96;100.00;96818.97;5109541;28;20226;-65
2022/01/05 05:18:05;;;;;;;0.80;0.80;;;;;;;4.17;100.00;96830.41;5106645;28;20211;-64
2022/01/05 05:20:33;;;;;;;0.80;0.80;;;;;;;3.56;100.00;96863.97;5110259;28;20218;-64
2022/01/05 05:22:59;;;;;;;0.70;0.70;;;;;;;3.29;100.00;96876.09;5110246;28;20267;-64
2022/01/05 05:25:26;;;;;;;1.20;0.90;;;;;;;3.03;100.00;96884.66;5108195;28;20221;-65
2022/01/05 05:27:52;;;;;;;1.47;1.37;;;;;;;2.83;100.00;96892.84;5106146;28;20212;-65
2022/01/05 05:30:21;;;;;;;1.33;1.23;;;;;;;2.66;100.00;96898.19;5109610;28;20238;-65
2022/01/05 05:32:47;;;;;;;1.37;1.27;;;;;;;2.37;100.00;96914.63;5110260;28;20245;-64
2022/01/05 05:35:14;;;;;;;1.50;1.40;;;;;;;2.25;100.00;96922.28;5109995;28;20238;-63
2022/01/05 05:37:41;;;;;;;2.07;1.53;;;;;;;2.02;100.00;96925.34;5106432;28;20303;-63
2022/01/05 05:40:08;;;;;;;3.23;1.93;;;;;;;1.95;100.00;96940.44;5109311;28;20210;-63
2022/01/05 05:42:35;;;;;;;2.10;1.90;;;;;;;1.98;100.00;96942.91;5110039;28;20210;-63
2022/01/05 05:45:01;;;;;;;3.00;2.17;;;;;;;1.84;100.00;96953.19;5110056;28;20592;-63
2022/01/05 05:47:30;;;;;;;2.30;2.03;;;;;;;1.90;100.00;96958.09;5098606;28;20558;-63
2022/01/05 05:49:56;;;;;;;2.50;2.30;;;;;;;1.98;100.00;96966.34;5098729;28;20215;-62
2022/01/05 05:52:23;;;;;;;2.40;2.20;;;;;;;2.06;100.00;96971.97;5097188;28;20592;-63
2022/01/05 05:54:49;;;;;;;3.07;2.67;;;;;;;2.11;100.00;96976.94;5096789;28;20317;-62
2022/01/05 05:57:16;;;;;;;3.77;2.70;;;;;;;2.17;100.00;96992.25;5098234;28;20695;-63
2022/01/05 05:59:42;;;;;;;4.40;3.00;;;;;;;2.24;100.00;96999.66;5096579;28;20672;-63
2022/01/05 06:02:09;;;;;;;2.87;2.57;;;;;;;2.32;100.00;97002.66;5096628;28;20681;-63
2022/01/05 06:04:36;;;;;;;3.90;3.60;;;;;;;2.34;100.00;97006.03;5096698;28;20234;-63
2022/01/05 06:07:03;;;;;;;3.33;2.47;;;;;;;2.35;100.00;97010.34;5098905;28;20221;-63
2022/01/05 06:09:30;;;;;;;3.37;2.87;;;;;;;2.43;100.00;97005.53;5097568;28;20222;-63
2022/01/05 06:11:56;;;;;;;4.17;3.13;;;;;;;2.41;100.00;97012.63;5109474;28;20217;-63
2022/01/05 06:14:23;;;;;;;3.93;2.90;;;;;;;2.55;100.00;97023.13;5109304;28;20238;-63
2022/01/05 06:16:49;;;;;;;3.80;2.80;;;;;;;2.65;100.00;97021.69;5104995;28;20224;-63
2022/01/05 06:19:16;;;;;;;4.83;2.90;;;;;;;2.60;100.00;97034.16;5106856;28;20226;-63
2022/01/05 06:21:44;;;;;;;3.57;2.80;;;;;;;2.65;100.00;97042.56;5108995;28;20225;-63
2022/01/05 06:24:10;;;;;;;3.23;2.93;;;;;;;2.67;100.00;97045.91;5109217;28;20210;-63
2022/01/05 06:26:37;;;;;;;4.20;3.10;;;;;;;2.66;100.00;97054.66;5107048;28;20217;-62
2022/01/05 06:29:04;;;;;;;4.07;2.70;;;;;;;2.72;100.00;97056.09;5106269;28;20222;-63
2022/01/05 06:31:30;;;;;;;3.10;2.43;;;;;;;2.71;100.00;97060.47;5109158;28;20237;-63
2022/01/05 06:33:57;;;;;;;3.70;2.70;;;;;;;2.77;100.00;97062.75;5108677;28;20604;-63
2022/01/05 06:36:23;;;;;;;4.30;2.50;;;;;;;2.81;100.00;97064.25;5107251;28;20574;-63
2022/01/05 06:38:51;;;;;;;3.33;2.53;;;;;;;2.70;100.00;97069.22;5105559;28;20210;-63
2022/01/05 06:41:18;;;;;;;4.53;2.30;;;;;;;2.64;100.00;97076.53;5107682;28;20206;-63
2022/01/05 06:43:44;;;;;;;2.20;2.00;;;;;;;2.59;100.00;97074.19;5108222;28;20217;-63
2022/01/05 06:46:10;;;;;;;2.73;1.93;;;;;;;2.62;100.00;97079.22;5107517;28;20215;-63
2022/01/05 06:48:37;;;;;;;2.30;2.00;;;;;;;2.64;100.00;97082.59;5104954;28;20214;-63
2022/01/05 06:51:03;;;;;;;2.07;1.83;;;;;;;2.66;100.00;97099.00;5108550;28;20587;-63
2022/01/05 06:53:30;;;;;;;2.13;1.70;;;;;;;2.65;100.00;97101.69;5108535;28;20206;-63
2022/01/05 06:55:58;;;;;;;2.70;2.20;;;;;;;2.64;100.00;97108.66;5107814;28;20237;-63
2022/01/05 06:58:24;;;;;;;2.23;1.90;;;;;;;2.72;100.00;97116.94;5104554;28;20680;-63
2022/01/05 07:00:51;;;;;;;3.87;2.27;;;;;;;2.75;100.00;97116.75;5108519;28;20210;-63
2022/01/05 07:03:17;;;;;;;3.17;1.80;;;;;;;2.69;100.00;97108.44;5108681;28;20210;-63
2022/01/05 07:05:44;;;;;;;1.40;1.30;;;;;;;2.44;100.00;97113.28;5099545;28;20241;-63
2022/01/05 07:08:10;;;;;;;1.87;1.33;;;;;;;2.30;100.00;97119.22;5095207;28;20214;-63
2022/01/05 07:10:37;;;;;;;1.40;1.30;;;;;;;2.23;100.00;97123.09;5106001;28;20206;-63
2022/01/05 07:13:05;;;;;;;1.50;1.40;;;;;;;2.13;100.00;97127.09;5108494;28;20213;-64
2022/01/05 07:15:31;;;;;;;2.53;1.50;;;;;;;2.10;100.00;97134.22;5108261;28;20234;-63
2022/01/05 07:17:58;;;;;;;1.97;1.43;;;;;;;2.18;100.00;97130.31;5104421;28;20230;-63
2022/01/05 07:20:25;;;;;;;1.73;1.20;;;;;;;2.24;100.00;97135.19;5107192;28;20794;-63
2022/01/05 07:22:51;;;;;;;1.50;1.30;;;;;;;2.07;100.00;97148.25;5108302;28;20222;-63
2022/01/05 07:25:18;;;;;;;1.40;1.30;;;;;;;1.75;100.00;97156.00;5108360;28;20574;-63
2022/01/05 07:27:44;;;;;;;1.87;1.50;;;;;;;1.51;100.00;97157.22;5104407;28;20221;-63
2022/01/05 07:30:13;;;;;;;1.57;1.30;;;;;;;1.48;100.00;97171.22;5106657;28;20242;-63
2022/01/05 07:32:40;;;;;;;2.27;1.70;;;;;;;1.55;100.00;97170.03;5102353;28;20210;-63
2022/01/05 07:35:08;;;;;;;3.53;2.37;;;;;;;1.82;100.00;97173.84;5092642;28;20247;-63
2022/01/05 07:37:34;;;;;;;3.23;2.40;;;;;;;1.91;100.00;97168.16;5095961;28;20689;-63
2022/01/05 07:40:01;;;;;;;4.00;2.33;;;;;;;2.03;100.00;97177.16;5094087;28;20211;-63
2022/01/05 07:42:32;;;;;;;4.17;2.30;;;;;;;2.02;100.00;97171.09;5093924;28;20222;-63
2022/01/05 07:44:59;;;;;;;8.03;2.70;;;;;;;1.98;100.00;97180.00;5094242;28;20244;-62
2022/01/05 07:47:27;;;;;;;2.67;2.43;;;;;;;2.04;100.00;97178.84;5096267;28;20210;-62
2022/01/05 07:49:53;;;;;;;3.90;2.40;;;;;;;2.07;100.00;97179.50;5093788;28;20214;-63
2022/01/05 07:52:20;;;;;;;5.07;2.30;;;;;;;2.07;100.00;97184.72;5093633;28;20207;-62
2022/01/05 07:54:46;;;;;;;3.03;2.27;;;;;;;2.02;100.00;97194.53;5093549;28;20726;-63
2022/01/05 07:57:12;;;;;;;3.40;1.80;;;;;;;1.95;100.00;97189.69;5096237;28;20225;-63
2022/01/05 07:59:39;;;;;;;5.33;2.50;;;;;;;1.94;100.00;97188.88;5093222;28;20695;-63
2022/01/05 08:02:05;;;;;;;3.27;2.37;;;;;;;1.90;100.00;97204.75;5092372;28;20221;-63
2022/01/05 08:04:33;;;;;;;4.20;2.30;;;;;;;1.91;100.00;97212.47;5093786;28;20219;-63
2022/01/05 08:07:00;;;;;;;4.87;2.40;;;;;;;1.92;100.00;97222.00;5095784;28;20215;-63
2022/01/05 08:09:29;;;;;;;4.60;2.10;;;;;;;1.85;100.00;97223.19;5093772;28;20203;-63
2022/01/05 08:11:56;;;;;;;8.40;2.30;;;;;;;1.76;100.00;97236.69;5106549;28;20217;-63
2022/01/05 08:14:22;;;;;;;4.00;2.27;;;;;;;1.78;100.00;97252.25;5106172;28;20214;-63
2022/01/05 08:16:49;;;;;;;6.50;2.43;;;;;;;1.66;100.00;97243.22;5103627;28;20214;-63
2022/01/05 08:19:15;;;;;;;4.37;2.37;;;;;;;1.65;100.00;97249.38;5107698;28;20586;-63
2022/01/05 08:21:43;;;;;;;5.50;2.40;;;;;;;1.70;100.00;97264.75;5097754;28;20214;-63
2022/01/05 08:24:11;;;;;;;4.90;3.10;;;;;;;1.78;100.00;97260.06;5097640;28;20215;-63
2022/01/05 08:26:37;;;;;;;6.37;2.93;;;;;;;1.94;100.00;97255.75;5096327;28;20215;-63
2022/01/05 08:29:04;;;;;;;6.30;3.00;;;;;;;2.08;100.00;97264.59;5099986;28;20671;-64
2022/01/05 08:31:30;;;;;;;5.83;3.40;;;;;;;2.16;100.00;97280.72;5097814;28;20238;-63
2022/01/05 08:33:59;;;;;;;4.97;2.97;;;;;;;2.17;100.00;97281.53;5097674;28;20215;-64
2022/01/05 08:36:26;;;;;;;5.30;2.90;;;;;;;2.15;100.00;97286.81;5097215;28;20234;-63
2022/01/05 08:38:53;;;;;;;6.73;3.23;;;;;;;2.10;100.00;97291.44;5107307;28;20211;-63
2022/01/05 08:41:20;;;;;;;4.97;2.83;;;;;;;1.93;100.00;97296.63;5109836;28;20212;-63
2022/01/05 08:43:47;;;;;;;4.37;3.20;;;;;;;1.82;100.00;97292.81;5109822;28;20248;-64
2022/01/05 08:46:13;;;;;;;4.40;2.93;;;;;;;1.70;100.00;97294.28;5107822;28;20212;-63
2022/01/05 08:48:42;;;;;;;5.93;3.23;;;;;;;1.61;100.00;97302.50;5106470;28;20214;-64
2022/01/05 08:51:08;;;;;;;6.30;3.23;;;;;;;1.54;100.00;97314.13;5109669;28;20218;-64
2022/01/05 08:53:35;;;;;;;3.07;2.70;;;;;;;1.48;100.00;97319.63;5107769;28;20675;-64
2022/01/05 08:56:03;;;;;;;4.87;2.80;;;;;;;1.60;100.00;97316.44;5107490;28;20707;-64
2022/01/05 08:58:29;;;;;;;4.57;2.60;;;;;;;1.78;100.00;97330.38;5106645;28;20665;-65
2022/01/05 09:00:56;;;;;;;4.87;3.03;;;;;;;1.77;100.00;97337.34;5109543;28;20218;-64
2022/01/05 09:03:23;;;;;;;3.00;2.70;;;;;;;1.66;100.00;97350.00;5109193;28;20218;-64
2022/01/05 09:05:50;;;;;;;6.53;3.13;;;;;;;1.61;100.00;97341.56;5108311;28;20267;-64
2022/01/05 09:08:16;;;;;;;4.00;2.30;;;;;;;1.65;100.00;97352.72;5106025;28;20214;-64
2022/01/05 09:10:43;;;;;;;4.07;2.20;;;;;;;1.65;100.00;97353.53;5096368;28;20212;-64
2022/01/05 09:13:12;;;;;;;5.93;1.93;;;;;;;1.68;100.00;97348.19;5094966;28;20214;-64
2022/01/05 09:15:40;;;;;;;3.73;2.50;;;;;;;1.57;100.00;97355.66;5095945;28;20323;-64
2022/01/05 09:18:07;;;;;;;8.17;2.20;;;;;;;1.45;100.00;97366.63;5098905;28;20263;-65
2022/01/05 09:20:34;;;;;;;4.47;2.00;;;;;;;1.39;98.85;97374.72;5097025;28;20210;-65
2022/01/05 09:23:02;;;;;;;4.93;2.10;;;;;;;1.28;100.00;97373.53;5112352;28;20217;-66
2022/01/05 09:25:28;;;;;;;3.40;1.90;;;;;;;1.22;100.00;97389.41;5108013;28;20210;-66
2022/01/05 09:27:55;;;;;;;3.90;1.90;;;;;;;1.14;100.00;97391.47;5109489;28;20211;-66
2022/01/05 09:30:23;;;;;;;6.03;2.63;;;;;;;1.04;100.00;97405.81;5109396;28;20238;-66
2022/01/05 09:32:50;;;;;;;4.17;2.00;;;;;;;1.08;100.00;97415.16;5109724;28;20296;-66
2022/01/05 09:35:20;;;;;;;6.57;2.10;;;;;;;1.00;100.00;97418.09;5092446;28;20243;-66
2022/01/05 09:38:05;;;;;;;6.30;2.50;;;;;;;1.07;100.00;97416.94;5093202;28;20297;-67
2022/01/05 09:43:19;;;;;;;6.93;3.00;;;;;;;1.40;100.00;97418.06;5071585;28;20210;-66
2022/01/05 09:45:54;;;;;;;5.73;2.37;;;;;;;1.65;100.00;97425.63;5109872;28;20217;-65
2022/01/05 09:48:38;;;;;;;5.33;2.10;;;;;;;1.81;100.00;97419.66;5098719;28;20214;-67
2022/01/05 09:51:09;;;;;;;5.77;1.93;;;;;;;1.86;96.60;97425.50;5092812;28;20253;-68
2022/01/05 09:53:36;;;;;;;5.53;2.20;;;;;;;1.89;98.74;97430.53;5092505;28;20259;-70
2022/01/05 09:56:04;;;;;;;5.60;2.37;;;;;;;1.85;100.00;97433.38;5094629;28;20237;-72
2022/01/05 09:58:32;;;;;;;4.53;2.43;;;;;;;1.88;100.00;97443.63;5102947;28;20268;-67
2022/01/05 10:01:00;;;;;;;6.10;2.23;;;;;;;1.95;100.00;97440.69;5097475;28;20215;-69
2022/01/05 10:03:27;;;;;;;4.27;2.30;;;;;;;2.14;100.00;97438.91;5100420;28;20220;-68
2022/01/05 10:05:53;;;;;;;5.67;2.67;;;;;;;2.23;100.00;97443.72;5098697;28;20260;-67
2022/01/05 10:08:20;;;;;;;7.17;2.60;;;;;;;2.31;100.00;97438.97;5105431;28;20213;-69
2022/01/05 10:10:47;;;;;;;4.27;2.20;;;;;;;2.26;100.00;97435.72;5093817;28;20202;-69
2022/01/05 10:13:13;;;;;;;7.67;2.17;;;;;;;2.18;99.13;97431.78;5092930;28;20226;-69
2022/01/05 10:15:40;;;;;;;7.73;2.40;;;;;;;1.98;97.75;97435.34;5091031;28;20711;-69
2022/01/05 10:18:13;;;;;;;5.37;1.93;;;;;;;1.88;96.37;97449.69;5092772;28;20226;-69
2022/01/05 10:20:54;;;;;;;4.13;2.17;;;;;;;1.92;99.25;97456.47;5092833;28;20222;-69
2022/01/05 10:23:32;;;;;;;5.13;2.33;;;;;;;1.94;99.13;97449.44;5092922;28;20222;-69
2022/01/05 10:26:18;;;;;;;4.77;2.20;;;;;;;2.03;97.80;97459.41;5091725;28;20207;-70
2022/01/05 10:28:46;;;;;;;6.47;2.37;;;;;;;2.22;99.14;97468.09;5092601;28;20221;-71
2022/01/05 10:31:15;;;;;;;4.77;2.37;;;;;;;2.29;96.35;97464.28;5092643;28;20268;-70
2022/01/05 10:33:43;;;;;;;4.90;2.20;;;;;;;2.36;95.85;97457.84;5092551;28;20213;-69
2022/01/05 10:36:09;;;;;;;6.13;2.37;;;;;;;2.56;95.83;97475.97;5092002;28;20235;-70
2022/01/05 10:38:36;;;;;;;6.10;2.27;;;;;;;2.88;91.70;97472.66;5092113;28;20215;-70
2022/01/05 10:41:15;;;;;;;5.13;2.03;;;;;;;3.10;84.64;97470.66;5090396;28;20673;-70
2022/01/05 10:44:17;;;;;;;5.03;1.93;;;;;;;3.13;88.52;97462.66;5092139;28;20206;-69
2022/01/05 10:46:46;;;;;;;4.30;1.83;;;;;;;3.07;87.29;97468.19;5092155;28;20209;-70
2022/01/05 10:49:28;;;;;;;6.57;1.83;;;;;;;2.94;87.37;97480.16;5098742;28;20226;-69
2022/01/05 10:51:56;;;;;;;7.13;2.07;;;;;;;2.96;88.27;97480.97;5098971;28;20225;-67
2022/01/05 10:54:24;;;;;;;7.83;2.30;;;;;;;2.95;90.04;97484.47;5102259;28;20209;-69
2022/01/05 10:56:51;;;;;;;6.37;2.27;;;;;;;2.87;88.05;97475.34;5099833;28;20236;-70
2022/01/05 10:59:28;;;;;;;9.70;2.40;;;;;;;2.82;88.00;97487.78;5098266;28;20218;-69
2022/01/05 11:01:54;;;;;;;4.07;2.30;;;;;;;2.78;85.86;97483.63;5100265;28;20617;-70
2022/01/05 11:04:23;;;;;;;5.77;2.00;;;;;;;2.79;87.63;97478.34;5101840;28;20230;-70
2022/01/05 11:06:58;;;;;;;4.10;2.10;;;;;;;2.85;87.69;97488.47;5098437;28;20210;-70
2022/01/05 11:09:26;;;;;;;5.80;2.00;;;;;;;2.86;89.26;97504.97;5103984;28;20705;-70
2022/01/05 11:11:52;;;;;;;4.97;2.00;;;;;;;2.81;87.77;97502.56;5105564;28;20237;-70
2022/01/05 11:14:21;;;;;;;4.50;2.70;;;;;;;2.73;88.44;97491.69;5101332;28;20697;-70
2022/01/05 11:16:49;;;;;;;3.73;1.73;;;;;;;2.65;90.09;97496.44;5098230;28;20242;-70
2022/01/05 11:19:18;;;;;;;7.57;2.10;;;;;;;2.57;90.21;97498.53;5097871;28;20218;-71
2022/01/05 11:22:07;;;;;;;6.60;2.00;;;;;;;2.40;90.03;97506.31;5101210;28;20579;-71
2022/01/05 11:24:36;;;;;;;5.63;2.13;;;;;;;2.36;90.05;97496.97;5104844;28;20587;-72
2022/01/05 11:27:05;;;;;;;3.93;2.13;;;;;;;2.42;88.80;97496.66;5105551;28;20217;-71
2022/01/05 11:29:34;;;;;;;6.37;2.50;;;;;;;2.58;88.05;97508.03;5102616;28;20220;-71
2022/01/05 11:32:01;;;;;;;6.10;2.30;;;;;;;2.71;89.59;97500.50;5101182;28;20295;-71
2022/01/05 11:34:29;;;;;;;6.60;2.23;;;;;;;2.72;88.61;97497.81;5109699;28;20210;-71
2022/01/05 11:36:57;;;;;;;4.40;2.10;;;;;;;2.76;85.49;97498.50;5105257;28;20235;-71
2022/01/05 11:39:25;;;;;;;3.67;2.00;;;;;;;2.91;87.25;97495.16;5102528;28;20766;-71